sensor_id;sensor_type;location;lat;lon;timestamp;P1;durP1;ratioP1;P2;durP2;ratioP2
35257;SDS011;21385;50.878;8.050;2023-12-22T00:02:18;1.77;;;1.45;;
35257;SDS011;21385;50.878;8.050;2023-12-22T00:04:45;2.58;;;0.90;;
35257;SDS011;21385;50.878;8.050;2023-12-22T00:07:10;3.50;;;0.95;;
35257;SDS011;21385;50.878;8.050;2023-12-22T00:09:36;1.30;;;1.17;;
35257;SDS011;21385;50.878;8.050;2023-12-22T00:12:02;0.95;;;0.73;;
35257;SDS011;21385;50.878;8.050;2023-12-22T00:14:28;0.40;;;0.40;;
35257;SDS011;21385;50.878;8.050;2023-12-22T00:16:53;0.73;;;0.73;;
35257;SDS011;21385;50.878;8.050;2023-12-22T00:19:19;0.20;;;0.20;;
35257;SDS011;21385;50.878;8.050;2023-12-22T00:21:45;0.22;;;0.20;;
35257;SDS011;21385;50.878;8.050;2023-12-22T00:24:10;1.10;;;0.73;;
35257;SDS011;21385;50.878;8.050;2023-12-22T00:26:36;0.15;;;0.15;;
35257;SDS011;21385;50.878;8.050;2023-12-22T00:29:02;4.60;;;0.75;;
35257;SDS011;21385;50.878;8.050;2023-12-22T00:31:27;1.58;;;1.33;;
35257;SDS011;21385;50.878;8.050;2023-12-22T00:33:53;1.55;;;0.75;;
35257;SDS011;21385;50.878;8.050;2023-12-22T00:36:19;0.40;;;0.40;;
35257;SDS011;21385;50.878;8.050;2023-12-22T00:38:48;0.77;;;0.77;;
35257;SDS011;21385;50.878;8.050;2023-12-22T00:41:13;0.55;;;0.55;;
35257;SDS011;21385;50.878;8.050;2023-12-22T00:43:39;0.10;;;0.10;;
35257;SDS011;21385;50.878;8.050;2023-12-22T00:46:05;0.50;;;0.50;;
35257;SDS011;21385;50.878;8.050;2023-12-22T00:48:30;6.38;;;1.48;;
35257;SDS011;21385;50.878;8.050;2023-12-22T00:50:56;0.25;;;0.25;;
35257;SDS011;21385;50.878;8.050;2023-12-22T00:53:21;1.05;;;0.65;;
35257;SDS011;21385;50.878;8.050;2023-12-22T00:55:47;0.50;;;0.35;;
35257;SDS011;21385;50.878;8.050;2023-12-22T00:58:13;0.15;;;0.10;;
35257;SDS011;21385;50.878;8.050;2023-12-22T01:00:38;0.70;;;0.70;;
35257;SDS011;21385;50.878;8.050;2023-12-22T01:03:04;0.60;;;0.60;;
35257;SDS011;21385;50.878;8.050;2023-12-22T01:05:29;2.17;;;0.85;;
35257;SDS011;21385;50.878;8.050;2023-12-22T01:07:55;2.90;;;0.98;;
35257;SDS011;21385;50.878;8.050;2023-12-22T01:10:21;0.22;;;0.22;;
35257;SDS011;21385;50.878;8.050;2023-12-22T01:12:46;6.65;;;1.65;;
35257;SDS011;21385;50.878;8.050;2023-12-22T01:15:12;1.83;;;1.35;;
35257;SDS011;21385;50.878;8.050;2023-12-22T01:17:38;0.22;;;0.22;;
35257;SDS011;21385;50.878;8.050;2023-12-22T01:20:03;1.95;;;0.73;;
35257;SDS011;21385;50.878;8.050;2023-12-22T01:22:29;1.92;;;0.65;;
35257;SDS011;21385;50.878;8.050;2023-12-22T01:24:57;2.05;;;0.63;;
35257;SDS011;21385;50.878;8.050;2023-12-22T01:27:22;0.65;;;0.65;;
35257;SDS011;21385;50.878;8.050;2023-12-22T01:29:48;0.60;;;0.57;;
35257;SDS011;21385;50.878;8.050;2023-12-22T01:32:13;0.50;;;0.45;;
35257;SDS011;21385;50.878;8.050;2023-12-22T01:34:39;2.85;;;0.73;;
35257;SDS011;21385;50.878;8.050;2023-12-22T01:37:05;10.10;;;1.17;;
35257;SDS011;21385;50.878;8.050;2023-12-22T01:39:31;1.35;;;1.25;;
35257;SDS011;21385;50.878;8.050;2023-12-22T01:41:57;0.22;;;0.22;;
35257;SDS011;21385;50.878;8.050;2023-12-22T01:44:23;0.55;;;0.55;;
35257;SDS011;21385;50.878;8.050;2023-12-22T01:46:49;1.73;;;1.15;;
35257;SDS011;21385;50.878;8.050;2023-12-22T01:49:15;0.65;;;0.55;;
35257;SDS011;21385;50.878;8.050;2023-12-22T01:51:41;0.95;;;0.60;;
35257;SDS011;21385;50.878;8.050;2023-12-22T01:54:08;1.17;;;1.10;;
35257;SDS011;21385;50.878;8.050;2023-12-22T01:56:34;6.43;;;1.23;;
35257;SDS011;21385;50.878;8.050;2023-12-22T01:59:00;0.40;;;0.40;;
35257;SDS011;21385;50.878;8.050;2023-12-22T02:01:29;1.00;;;0.95;;
35257;SDS011;21385;50.878;8.050;2023-12-22T02:03:55;0.28;;;0.28;;
35257;SDS011;21385;50.878;8.050;2023-12-22T02:06:23;0.30;;;0.30;;
35257;SDS011;21385;50.878;8.050;2023-12-22T02:08:49;1.48;;;1.00;;
35257;SDS011;21385;50.878;8.050;2023-12-22T02:11:15;0.15;;;0.15;;
35257;SDS011;21385;50.878;8.050;2023-12-22T02:13:41;0.20;;;0.20;;
35257;SDS011;21385;50.878;8.050;2023-12-22T02:16:11;8.48;;;0.90;;
35257;SDS011;21385;50.878;8.050;2023-12-22T02:18:44;1.80;;;1.27;;
35257;SDS011;21385;50.878;8.050;2023-12-22T02:21:13;2.85;;;0.60;;
35257;SDS011;21385;50.878;8.050;2023-12-22T02:23:39;1.40;;;1.30;;
35257;SDS011;21385;50.878;8.050;2023-12-22T02:29:08;2.90;;;1.08;;
35257;SDS011;21385;50.878;8.050;2023-12-22T02:31:40;1.27;;;0.82;;
35257;SDS011;21385;50.878;8.050;2023-12-22T02:34:13;0.52;;;0.52;;
35257;SDS011;21385;50.878;8.050;2023-12-22T02:36:44;0.10;;;0.10;;
35257;SDS011;21385;50.878;8.050;2023-12-22T02:39:10;0.55;;;0.50;;
35257;SDS011;21385;50.878;8.050;2023-12-22T02:41:36;0.00;;;0.00;;
35257;SDS011;21385;50.878;8.050;2023-12-22T02:44:04;0.28;;;0.17;;
35257;SDS011;21385;50.878;8.050;2023-12-22T02:46:29;0.00;;;0.00;;
35257;SDS011;21385;50.878;8.050;2023-12-22T02:48:55;0.50;;;0.32;;
35257;SDS011;21385;50.878;8.050;2023-12-22T02:51:20;0.00;;;0.00;;
35257;SDS011;21385;50.878;8.050;2023-12-22T02:53:46;0.50;;;0.40;;
35257;SDS011;21385;50.878;8.050;2023-12-22T02:56:12;0.55;;;0.55;;
35257;SDS011;21385;50.878;8.050;2023-12-22T02:58:37;0.00;;;0.00;;
35257;SDS011;21385;50.878;8.050;2023-12-22T03:01:03;0.25;;;0.25;;
35257;SDS011;21385;50.878;8.050;2023-12-22T03:03:28;0.10;;;0.10;;
35257;SDS011;21385;50.878;8.050;2023-12-22T03:05:54;0.00;;;0.00;;
35257;SDS011;21385;50.878;8.050;2023-12-22T03:08:19;0.00;;;0.00;;
35257;SDS011;21385;50.878;8.050;2023-12-22T03:10:45;4.57;;;0.43;;
35257;SDS011;21385;50.878;8.050;2023-12-22T03:13:10;0.13;;;0.13;;
35257;SDS011;21385;50.878;8.050;2023-12-22T03:15:36;0.00;;;0.00;;
35257;SDS011;21385;50.878;8.050;2023-12-22T03:18:01;1.27;;;1.02;;
35257;SDS011;21385;50.878;8.050;2023-12-22T03:20:27;0.40;;;0.13;;
35257;SDS011;21385;50.878;8.050;2023-12-22T03:22:53;0.20;;;0.10;;
35257;SDS011;21385;50.878;8.050;2023-12-22T03:25:18;0.10;;;0.10;;
35257;SDS011;21385;50.878;8.050;2023-12-22T03:27:44;0.00;;;0.00;;
35257;SDS011;21385;50.878;8.050;2023-12-22T03:30:10;0.52;;;0.52;;
35257;SDS011;21385;50.878;8.050;2023-12-22T03:32:36;1.65;;;0.40;;
35257;SDS011;21385;50.878;8.050;2023-12-22T03:35:01;0.30;;;0.30;;
35257;SDS011;21385;50.878;8.050;2023-12-22T03:37:27;0.20;;;0.20;;
35257;SDS011;21385;50.878;8.050;2023-12-22T03:39:52;0.10;;;0.10;;
35257;SDS011;21385;50.878;8.050;2023-12-22T03:42:18;0.03;;;0.03;;
35257;SDS011;21385;50.878;8.050;2023-12-22T03:44:43;2.42;;;1.08;;
35257;SDS011;21385;50.878;8.050;2023-12-22T03:47:09;0.38;;;0.25;;
35257;SDS011;21385;50.878;8.050;2023-12-22T03:49:35;0.30;;;0.30;;
35257;SDS011;21385;50.878;8.050;2023-12-22T03:52:00;0.47;;;0.32;;
35257;SDS011;21385;50.878;8.050;2023-12-22T03:54:26;2.42;;;0.75;;
35257;SDS011;21385;50.878;8.050;2023-12-22T03:56:52;0.73;;;0.73;;
35257;SDS011;21385;50.878;8.050;2023-12-22T03:59:17;1.25;;;0.43;;
35257;SDS011;21385;50.878;8.050;2023-12-22T04:01:43;0.10;;;0.10;;
35257;SDS011;21385;50.878;8.050;2023-12-22T04:04:09;0.00;;;0.00;;
35257;SDS011;21385;50.878;8.050;2023-12-22T04:06:38;0.20;;;0.20;;
35257;SDS011;21385;50.878;8.050;2023-12-22T04:09:05;0.08;;;0.08;;
35257;SDS011;21385;50.878;8.050;2023-12-22T04:11:30;0.30;;;0.30;;
35257;SDS011;21385;50.878;8.050;2023-12-22T04:13:56;0.20;;;0.20;;
35257;SDS011;21385;50.878;8.050;2023-12-22T04:16:22;0.85;;;0.47;;
35257;SDS011;21385;50.878;8.050;2023-12-22T04:18:47;3.30;;;0.30;;
35257;SDS011;21385;50.878;8.050;2023-12-22T04:21:13;0.25;;;0.25;;
35257;SDS011;21385;50.878;8.050;2023-12-22T04:23:38;0.00;;;0.00;;
35257;SDS011;21385;50.878;8.050;2023-12-22T04:26:04;0.00;;;0.00;;
35257;SDS011;21385;50.878;8.050;2023-12-22T04:28:29;0.00;;;0.00;;
35257;SDS011;21385;50.878;8.050;2023-12-22T04:30:55;2.03;;;0.35;;
35257;SDS011;21385;50.878;8.050;2023-12-22T04:33:20;0.00;;;0.00;;
35257;SDS011;21385;50.878;8.050;2023-12-22T04:35:46;1.45;;;0.60;;
35257;SDS011;21385;50.878;8.050;2023-12-22T04:38:12;0.15;;;0.15;;
35257;SDS011;21385;50.878;8.050;2023-12-22T04:40:37;0.00;;;0.00;;
35257;SDS011;21385;50.878;8.050;2023-12-22T04:43:03;0.30;;;0.30;;
35257;SDS011;21385;50.878;8.050;2023-12-22T04:45:28;2.00;;;0.63;;
35257;SDS011;21385;50.878;8.050;2023-12-22T04:47:54;1.15;;;0.70;;
35257;SDS011;21385;50.878;8.050;2023-12-22T04:50:19;0.00;;;0.00;;
35257;SDS011;21385;50.878;8.050;2023-12-22T04:52:45;0.00;;;0.00;;
35257;SDS011;21385;50.878;8.050;2023-12-22T04:55:10;13.32;;;0.32;;
35257;SDS011;21385;50.878;8.050;2023-12-22T04:57:36;1.75;;;0.63;;
35257;SDS011;21385;50.878;8.050;2023-12-22T05:00:02;0.88;;;0.45;;
35257;SDS011;21385;50.878;8.050;2023-12-22T05:02:28;0.93;;;0.73;;
35257;SDS011;21385;50.878;8.050;2023-12-22T05:04:54;4.70;;;1.10;;
35257;SDS011;21385;50.878;8.050;2023-12-22T05:07:19;0.30;;;0.30;;
35257;SDS011;21385;50.878;8.050;2023-12-22T05:09:45;5.65;;;1.13;;
35257;SDS011;21385;50.878;8.050;2023-12-22T05:12:11;0.77;;;0.77;;
35257;SDS011;21385;50.878;8.050;2023-12-22T05:14:36;2.83;;;1.55;;
35257;SDS011;21385;50.878;8.050;2023-12-22T05:17:02;2.05;;;1.85;;
35257;SDS011;21385;50.878;8.050;2023-12-22T05:19:28;13.02;;;3.22;;
35257;SDS011;21385;50.878;8.050;2023-12-22T05:21:53;1.30;;;1.13;;
35257;SDS011;21385;50.878;8.050;2023-12-22T05:24:21;1.48;;;1.38;;
35257;SDS011;21385;50.878;8.050;2023-12-22T05:26:47;0.43;;;0.43;;
35257;SDS011;21385;50.878;8.050;2023-12-22T05:29:12;0.80;;;0.80;;
35257;SDS011;21385;50.878;8.050;2023-12-22T05:31:38;1.08;;;0.77;;
35257;SDS011;21385;50.878;8.050;2023-12-22T05:34:05;0.90;;;0.73;;
35257;SDS011;21385;50.878;8.050;2023-12-22T05:36:31;0.55;;;0.55;;
35257;SDS011;21385;50.878;8.050;2023-12-22T05:38:56;1.55;;;1.42;;
35257;SDS011;21385;50.878;8.050;2023-12-22T05:41:22;1.70;;;1.60;;
35257;SDS011;21385;50.878;8.050;2023-12-22T05:43:47;1.58;;;1.45;;
35257;SDS011;21385;50.878;8.050;2023-12-22T05:46:13;8.55;;;1.55;;
35257;SDS011;21385;50.878;8.050;2023-12-22T05:48:38;3.42;;;1.17;;
35257;SDS011;21385;50.878;8.050;2023-12-22T05:51:04;1.48;;;0.85;;
35257;SDS011;21385;50.878;8.050;2023-12-22T05:53:32;1.15;;;1.08;;
35257;SDS011;21385;50.878;8.050;2023-12-22T05:55:58;7.22;;;2.13;;
35257;SDS011;21385;50.878;8.050;2023-12-22T05:58:23;6.60;;;1.58;;
35257;SDS011;21385;50.878;8.050;2023-12-22T06:00:49;0.28;;;0.28;;
35257;SDS011;21385;50.878;8.050;2023-12-22T06:03:15;1.83;;;1.63;;
35257;SDS011;21385;50.878;8.050;2023-12-22T06:05:40;16.15;;;1.42;;
35257;SDS011;21385;50.878;8.050;2023-12-22T06:08:06;0.40;;;0.40;;
35257;SDS011;21385;50.878;8.050;2023-12-22T06:10:31;0.63;;;0.60;;
35257;SDS011;21385;50.878;8.050;2023-12-22T06:12:57;0.40;;;0.30;;
35257;SDS011;21385;50.878;8.050;2023-12-22T06:15:23;2.40;;;0.68;;
35257;SDS011;21385;50.878;8.050;2023-12-22T06:17:49;1.38;;;1.20;;
35257;SDS011;21385;50.878;8.050;2023-12-22T06:20:14;1.10;;;0.60;;
35257;SDS011;21385;50.878;8.050;2023-12-22T06:22:40;0.70;;;0.40;;
35257;SDS011;21385;50.878;8.050;2023-12-22T06:25:06;2.05;;;1.20;;
35257;SDS011;21385;50.878;8.050;2023-12-22T06:27:32;0.10;;;0.10;;
35257;SDS011;21385;50.878;8.050;2023-12-22T06:29:58;5.85;;;0.20;;
35257;SDS011;21385;50.878;8.050;2023-12-22T06:32:24;0.10;;;0.10;;
35257;SDS011;21385;50.878;8.050;2023-12-22T06:34:50;0.15;;;0.10;;
35257;SDS011;21385;50.878;8.050;2023-12-22T06:37:15;2.45;;;0.65;;
35257;SDS011;21385;50.878;8.050;2023-12-22T06:39:41;1.40;;;0.50;;
35257;SDS011;21385;50.878;8.050;2023-12-22T06:42:07;0.20;;;0.20;;
35257;SDS011;21385;50.878;8.050;2023-12-22T06:44:36;2.20;;;1.05;;
35257;SDS011;21385;50.878;8.050;2023-12-22T06:47:02;0.80;;;0.70;;
35257;SDS011;21385;50.878;8.050;2023-12-22T06:49:28;5.15;;;1.30;;
35257;SDS011;21385;50.878;8.050;2023-12-22T06:51:53;2.90;;;2.22;;
35257;SDS011;21385;50.878;8.050;2023-12-22T06:54:19;0.57;;;0.57;;
35257;SDS011;21385;50.878;8.050;2023-12-22T06:56:45;3.70;;;1.08;;
35257;SDS011;21385;50.878;8.050;2023-12-22T06:59:11;1.17;;;0.95;;
35257;SDS011;21385;50.878;8.050;2023-12-22T07:01:37;0.68;;;0.68;;
35257;SDS011;21385;50.878;8.050;2023-12-22T07:04:03;1.30;;;0.60;;
35257;SDS011;21385;50.878;8.050;2023-12-22T07:06:30;0.50;;;0.50;;
35257;SDS011;21385;50.878;8.050;2023-12-22T07:11:44;7.03;;;1.25;;
35257;SDS011;21385;50.878;8.050;2023-12-22T07:14:15;0.75;;;0.75;;
35257;SDS011;21385;50.878;8.050;2023-12-22T07:16:41;3.70;;;2.05;;
35257;SDS011;21385;50.878;8.050;2023-12-22T07:19:09;1.95;;;0.40;;
35257;SDS011;21385;50.878;8.050;2023-12-22T07:21:38;2.38;;;1.15;;
35257;SDS011;21385;50.878;8.050;2023-12-22T07:24:04;1.33;;;1.10;;
35257;SDS011;21385;50.878;8.050;2023-12-22T07:26:31;0.70;;;0.70;;
35257;SDS011;21385;50.878;8.050;2023-12-22T07:28:56;7.05;;;0.93;;
35257;SDS011;21385;50.878;8.050;2023-12-22T07:31:23;0.32;;;0.32;;
35257;SDS011;21385;50.878;8.050;2023-12-22T07:33:49;1.52;;;1.17;;
35257;SDS011;21385;50.878;8.050;2023-12-22T07:36:14;12.25;;;2.58;;
35257;SDS011;21385;50.878;8.050;2023-12-22T07:38:40;2.80;;;1.58;;
35257;SDS011;21385;50.878;8.050;2023-12-22T07:41:06;3.67;;;1.50;;
35257;SDS011;21385;50.878;8.050;2023-12-22T07:43:31;3.42;;;3.13;;
35257;SDS011;21385;50.878;8.050;2023-12-22T07:45:57;14.65;;;3.95;;
35257;SDS011;21385;50.878;8.050;2023-12-22T07:48:23;6.50;;;2.60;;
35257;SDS011;21385;50.878;8.050;2023-12-22T07:50:51;22.88;;;4.38;;
35257;SDS011;21385;50.878;8.050;2023-12-22T07:53:17;5.38;;;1.77;;
35257;SDS011;21385;50.878;8.050;2023-12-22T07:55:43;2.22;;;1.92;;
35257;SDS011;21385;50.878;8.050;2023-12-22T07:58:09;3.60;;;1.77;;
35257;SDS011;21385;50.878;8.050;2023-12-22T08:00:35;3.75;;;1.27;;
35257;SDS011;21385;50.878;8.050;2023-12-22T08:03:02;5.10;;;2.13;;
35257;SDS011;21385;50.878;8.050;2023-12-22T08:05:27;5.85;;;3.17;;
35257;SDS011;21385;50.878;8.050;2023-12-22T08:07:54;4.88;;;1.40;;
35257;SDS011;21385;50.878;8.050;2023-12-22T08:10:20;4.97;;;2.75;;
35257;SDS011;21385;50.878;8.050;2023-12-22T08:12:46;1.42;;;1.33;;
35257;SDS011;21385;50.878;8.050;2023-12-22T08:15:11;9.10;;;2.50;;
35257;SDS011;21385;50.878;8.050;2023-12-22T08:17:37;2.50;;;2.33;;
35257;SDS011;21385;50.878;8.050;2023-12-22T08:20:10;7.00;;;2.70;;
35257;SDS011;21385;50.878;8.050;2023-12-22T08:22:36;5.95;;;3.08;;
35257;SDS011;21385;50.878;8.050;2023-12-22T08:25:01;3.75;;;1.65;;
35257;SDS011;21385;50.878;8.050;2023-12-22T08:27:27;4.13;;;2.58;;
35257;SDS011;21385;50.878;8.050;2023-12-22T08:29:52;2.08;;;1.90;;
35257;SDS011;21385;50.878;8.050;2023-12-22T08:32:18;2.70;;;1.40;;
35257;SDS011;21385;50.878;8.050;2023-12-22T08:34:44;2.33;;;1.27;;
35257;SDS011;21385;50.878;8.050;2023-12-22T08:37:10;1.88;;;1.50;;
35257;SDS011;21385;50.878;8.050;2023-12-22T08:39:36;2.78;;;1.83;;
35257;SDS011;21385;50.878;8.050;2023-12-22T08:42:01;2.13;;;1.27;;
35257;SDS011;21385;50.878;8.050;2023-12-22T08:44:27;1.50;;;1.08;;
35257;SDS011;21385;50.878;8.050;2023-12-22T08:46:53;4.03;;;3.22;;
35257;SDS011;21385;50.878;8.050;2023-12-22T08:49:18;1.77;;;1.02;;
35257;SDS011;21385;50.878;8.050;2023-12-22T08:51:44;1.08;;;0.73;;
35257;SDS011;21385;50.878;8.050;2023-12-22T08:54:09;3.15;;;1.58;;
35257;SDS011;21385;50.878;8.050;2023-12-22T08:56:35;5.63;;;1.33;;
35257;SDS011;21385;50.878;8.050;2023-12-22T08:59:00;1.35;;;1.25;;
35257;SDS011;21385;50.878;8.050;2023-12-22T09:01:26;1.58;;;1.48;;
35257;SDS011;21385;50.878;8.050;2023-12-22T09:03:52;10.05;;;0.70;;
35257;SDS011;21385;50.878;8.050;2023-12-22T09:06:18;4.97;;;1.70;;
35257;SDS011;21385;50.878;8.050;2023-12-22T09:08:44;1.02;;;0.95;;
35257;SDS011;21385;50.878;8.050;2023-12-22T09:11:11;7.18;;;2.83;;
35257;SDS011;21385;50.878;8.050;2023-12-22T09:13:37;1.73;;;1.05;;
35257;SDS011;21385;50.878;8.050;2023-12-22T09:16:03;2.08;;;1.92;;
35257;SDS011;21385;50.878;8.050;2023-12-22T09:18:30;5.32;;;2.10;;
35257;SDS011;21385;50.878;8.050;2023-12-22T09:20:56;21.33;;;2.05;;
35257;SDS011;21385;50.878;8.050;2023-12-22T09:23:22;2.70;;;0.75;;
35257;SDS011;21385;50.878;8.050;2023-12-22T09:25:48;2.92;;;1.63;;
35257;SDS011;21385;50.878;8.050;2023-12-22T09:28:14;9.68;;;2.20;;
35257;SDS011;21385;50.878;8.050;2023-12-22T09:30:39;2.35;;;1.88;;
35257;SDS011;21385;50.878;8.050;2023-12-22T09:33:05;1.65;;;1.55;;
35257;SDS011;21385;50.878;8.050;2023-12-22T09:35:31;14.23;;;3.10;;
35257;SDS011;21385;50.878;8.050;2023-12-22T09:37:56;2.63;;;1.88;;
35257;SDS011;21385;50.878;8.050;2023-12-22T09:40:22;4.40;;;1.70;;
35257;SDS011;21385;50.878;8.050;2023-12-22T09:42:47;7.70;;;1.65;;
35257;SDS011;21385;50.878;8.050;2023-12-22T09:45:16;5.40;;;3.30;;
35257;SDS011;21385;50.878;8.050;2023-12-22T09:47:44;12.60;;;2.53;;
35257;SDS011;21385;50.878;8.050;2023-12-22T09:50:10;2.22;;;1.85;;
35257;SDS011;21385;50.878;8.050;2023-12-22T09:52:38;4.75;;;2.25;;
35257;SDS011;21385;50.878;8.050;2023-12-22T09:55:07;2.75;;;2.50;;
35257;SDS011;21385;50.878;8.050;2023-12-22T09:57:33;8.88;;;2.13;;
35257;SDS011;21385;50.878;8.050;2023-12-22T10:00:00;7.88;;;2.15;;
35257;SDS011;21385;50.878;8.050;2023-12-22T10:02:29;3.05;;;2.80;;
35257;SDS011;21385;50.878;8.050;2023-12-22T10:04:55;4.15;;;2.08;;
35257;SDS011;21385;50.878;8.050;2023-12-22T10:07:21;4.07;;;1.20;;
35257;SDS011;21385;50.878;8.050;2023-12-22T10:09:47;6.53;;;2.58;;
35257;SDS011;21385;50.878;8.050;2023-12-22T10:12:14;3.50;;;2.70;;
35257;SDS011;21385;50.878;8.050;2023-12-22T10:14:42;3.55;;;2.17;;
35257;SDS011;21385;50.878;8.050;2023-12-22T10:17:08;8.25;;;3.28;;
35257;SDS011;21385;50.878;8.050;2023-12-22T10:19:33;15.98;;;4.28;;
35257;SDS011;21385;50.878;8.050;2023-12-22T10:21:59;14.13;;;2.97;;
35257;SDS011;21385;50.878;8.050;2023-12-22T10:24:41;6.63;;;3.03;;
35257;SDS011;21385;50.878;8.050;2023-12-22T10:27:12;2.97;;;1.60;;
35257;SDS011;21385;50.878;8.050;2023-12-22T10:29:38;4.22;;;2.10;;
35257;SDS011;21385;50.878;8.050;2023-12-22T10:32:05;5.95;;;2.35;;
35257;SDS011;21385;50.878;8.050;2023-12-22T10:34:31;8.05;;;4.68;;
35257;SDS011;21385;50.878;8.050;2023-12-22T10:36:58;6.85;;;5.35;;
35257;SDS011;21385;50.878;8.050;2023-12-22T10:39:27;1.73;;;1.05;;
35257;SDS011;21385;50.878;8.050;2023-12-22T10:41:57;7.18;;;5.30;;
35257;SDS011;21385;50.878;8.050;2023-12-22T10:44:29;8.20;;;3.75;;
35257;SDS011;21385;50.878;8.050;2023-12-22T10:46:55;4.95;;;2.42;;
35257;SDS011;21385;50.878;8.050;2023-12-22T10:49:22;2.72;;;1.75;;
35257;SDS011;21385;50.878;8.050;2023-12-22T10:51:49;3.58;;;2.03;;
35257;SDS011;21385;50.878;8.050;2023-12-22T10:54:15;3.33;;;2.15;;
35257;SDS011;21385;50.878;8.050;2023-12-22T10:56:41;11.35;;;2.53;;
35257;SDS011;21385;50.878;8.050;2023-12-22T10:59:07;7.75;;;3.13;;
35257;SDS011;21385;50.878;8.050;2023-12-22T11:01:33;2.45;;;1.85;;
35257;SDS011;21385;50.878;8.050;2023-12-22T11:04:07;1.50;;;1.37;;
35257;SDS011;21385;50.878;8.050;2023-12-22T11:06:37;4.32;;;1.67;;
35257;SDS011;21385;50.878;8.050;2023-12-22T11:09:09;1.40;;;1.30;;
35257;SDS011;21385;50.878;8.050;2023-12-22T11:11:36;1.92;;;1.70;;
35257;SDS011;21385;50.878;8.050;2023-12-22T11:14:03;5.43;;;1.92;;
35257;SDS011;21385;50.878;8.050;2023-12-22T11:16:29;2.22;;;1.27;;
35257;SDS011;21385;50.878;8.050;2023-12-22T11:18:56;3.15;;;1.55;;
35257;SDS011;21385;50.878;8.050;2023-12-22T11:21:22;1.90;;;0.77;;
35257;SDS011;21385;50.878;8.050;2023-12-22T11:23:49;2.67;;;1.65;;
35257;SDS011;21385;50.878;8.050;2023-12-22T11:26:16;1.83;;;1.45;;
35257;SDS011;21385;50.878;8.050;2023-12-22T11:28:44;6.53;;;1.90;;
35257;SDS011;21385;50.878;8.050;2023-12-22T11:31:14;3.38;;;1.80;;
35257;SDS011;21385;50.878;8.050;2023-12-22T11:33:44;1.30;;;1.20;;
35257;SDS011;21385;50.878;8.050;2023-12-22T11:36:11;1.80;;;1.45;;
35257;SDS011;21385;50.878;8.050;2023-12-22T11:38:38;2.03;;;1.90;;
35257;SDS011;21385;50.878;8.050;2023-12-22T11:41:09;1.30;;;1.20;;
35257;SDS011;21385;50.878;8.050;2023-12-22T11:43:38;1.40;;;1.17;;
35257;SDS011;21385;50.878;8.050;2023-12-22T11:46:05;4.05;;;1.23;;
35257;SDS011;21385;50.878;8.050;2023-12-22T11:48:30;3.65;;;1.15;;
35257;SDS011;21385;50.878;8.050;2023-12-22T11:50:56;4.38;;;1.08;;
35257;SDS011;21385;50.878;8.050;2023-12-22T11:53:25;1.67;;;0.70;;
35257;SDS011;21385;50.878;8.050;2023-12-22T11:56:04;0.22;;;0.22;;
35257;SDS011;21385;50.878;8.050;2023-12-22T12:01:01;12.43;;;1.00;;
35257;SDS011;21385;50.878;8.050;2023-12-22T12:03:31;1.48;;;0.90;;
35257;SDS011;21385;50.878;8.050;2023-12-22T12:06:09;0.63;;;0.63;;
35257;SDS011;21385;50.878;8.050;2023-12-22T12:08:38;1.45;;;1.30;;
35257;SDS011;21385;50.878;8.050;2023-12-22T12:11:04;0.85;;;0.75;;
35257;SDS011;21385;50.878;8.050;2023-12-22T12:13:31;1.20;;;0.85;;
35257;SDS011;21385;50.878;8.050;2023-12-22T12:15:59;5.90;;;1.63;;
35257;SDS011;21385;50.878;8.050;2023-12-22T12:18:32;0.60;;;0.60;;
35257;SDS011;21385;50.878;8.050;2023-12-22T12:20:58;3.53;;;0.57;;
35257;SDS011;21385;50.878;8.050;2023-12-22T12:23:25;1.08;;;0.40;;
35257;SDS011;21385;50.878;8.050;2023-12-22T12:25:52;0.05;;;0.05;;
35257;SDS011;21385;50.878;8.050;2023-12-22T12:28:24;0.13;;;0.13;;
35257;SDS011;21385;50.878;8.050;2023-12-22T12:30:56;0.75;;;0.40;;
35257;SDS011;21385;50.878;8.050;2023-12-22T12:33:26;0.20;;;0.20;;
35257;SDS011;21385;50.878;8.050;2023-12-22T12:35:53;8.98;;;0.68;;
35257;SDS011;21385;50.878;8.050;2023-12-22T12:38:21;0.00;;;0.00;;
35257;SDS011;21385;50.878;8.050;2023-12-22T12:40:53;0.30;;;0.30;;
35257;SDS011;21385;50.878;8.050;2023-12-22T12:43:21;0.88;;;0.50;;
35257;SDS011;21385;50.878;8.050;2023-12-22T12:45:48;0.30;;;0.30;;
35257;SDS011;21385;50.878;8.050;2023-12-22T12:48:16;0.30;;;0.30;;
35257;SDS011;21385;50.878;8.050;2023-12-22T12:50:44;1.17;;;1.03;;
35257;SDS011;21385;50.878;8.050;2023-12-22T12:53:10;1.05;;;0.40;;
35257;SDS011;21385;50.878;8.050;2023-12-22T12:55:35;2.08;;;0.75;;
35257;SDS011;21385;50.878;8.050;2023-12-22T12:58:01;3.60;;;1.50;;
35257;SDS011;21385;50.878;8.050;2023-12-22T13:00:28;1.13;;;1.10;;
35257;SDS011;21385;50.878;8.050;2023-12-22T13:03:01;0.35;;;0.35;;
35257;SDS011;21385;50.878;8.050;2023-12-22T13:05:30;1.98;;;0.93;;
35257;SDS011;21385;50.878;8.050;2023-12-22T13:08:06;1.42;;;0.40;;
35257;SDS011;21385;50.878;8.050;2023-12-22T13:10:36;0.28;;;0.28;;
35257;SDS011;21385;50.878;8.050;2023-12-22T13:13:02;0.43;;;0.43;;
35257;SDS011;21385;50.878;8.050;2023-12-22T13:15:28;0.40;;;0.40;;
35257;SDS011;21385;50.878;8.050;2023-12-22T13:17:54;0.80;;;0.63;;
35257;SDS011;21385;50.878;8.050;2023-12-22T13:20:20;1.83;;;0.80;;
35257;SDS011;21385;50.878;8.050;2023-12-22T13:22:46;2.42;;;0.80;;
35257;SDS011;21385;50.878;8.050;2023-12-22T13:25:11;3.38;;;0.80;;
35257;SDS011;21385;50.878;8.050;2023-12-22T13:27:44;1.02;;;0.73;;
35257;SDS011;21385;50.878;8.050;2023-12-22T13:30:34;0.47;;;0.43;;
35257;SDS011;21385;50.878;8.050;2023-12-22T13:33:05;0.70;;;0.70;;
35257;SDS011;21385;50.878;8.050;2023-12-22T13:35:35;0.57;;;0.40;;
35257;SDS011;21385;50.878;8.050;2023-12-22T13:38:02;1.60;;;0.55;;
35257;SDS011;21385;50.878;8.050;2023-12-22T13:40:31;0.88;;;0.75;;
35257;SDS011;21385;50.878;8.050;2023-12-22T13:42:57;0.65;;;0.65;;
35257;SDS011;21385;50.878;8.050;2023-12-22T13:45:26;2.28;;;0.68;;
35257;SDS011;21385;50.878;8.050;2023-12-22T13:47:52;0.88;;;0.68;;
35257;SDS011;21385;50.878;8.050;2023-12-22T13:50:18;1.30;;;0.80;;
35257;SDS011;21385;50.878;8.050;2023-12-22T13:52:44;1.63;;;0.70;;
35257;SDS011;21385;50.878;8.050;2023-12-22T13:55:13;2.72;;;0.77;;
35257;SDS011;21385;50.878;8.050;2023-12-22T13:57:40;0.37;;;0.37;;
35257;SDS011;21385;50.878;8.050;2023-12-22T14:00:28;0.98;;;0.45;;
35257;SDS011;21385;50.878;8.050;2023-12-22T14:02:54;3.45;;;1.02;;
35257;SDS011;21385;50.878;8.050;2023-12-22T14:05:19;2.20;;;2.00;;
35257;SDS011;21385;50.878;8.050;2023-12-22T14:07:45;1.35;;;1.25;;
35257;SDS011;21385;50.878;8.050;2023-12-22T14:10:11;1.20;;;1.13;;
35257;SDS011;21385;50.878;8.050;2023-12-22T14:12:37;5.20;;;1.25;;
35257;SDS011;21385;50.878;8.050;2023-12-22T14:15:10;0.90;;;0.82;;
35257;SDS011;21385;50.878;8.050;2023-12-22T14:17:37;3.75;;;0.85;;
35257;SDS011;21385;50.878;8.050;2023-12-22T14:20:03;1.58;;;0.80;;
35257;SDS011;21385;50.878;8.050;2023-12-22T14:22:34;0.40;;;0.40;;
35257;SDS011;21385;50.878;8.050;2023-12-22T14:25:01;3.35;;;0.77;;
35257;SDS011;21385;50.878;8.050;2023-12-22T14:27:26;1.02;;;0.50;;
35257;SDS011;21385;50.878;8.050;2023-12-22T14:29:52;0.30;;;0.30;;
35257;SDS011;21385;50.878;8.050;2023-12-22T14:32:17;1.40;;;1.20;;
35257;SDS011;21385;50.878;8.050;2023-12-22T14:34:46;1.13;;;0.73;;
35257;SDS011;21385;50.878;8.050;2023-12-22T14:37:11;0.63;;;0.52;;
35257;SDS011;21385;50.878;8.050;2023-12-22T14:39:37;0.93;;;0.68;;
35257;SDS011;21385;50.878;8.050;2023-12-22T14:42:03;3.22;;;1.13;;
35257;SDS011;21385;50.878;8.050;2023-12-22T14:44:29;0.95;;;0.90;;
35257;SDS011;21385;50.878;8.050;2023-12-22T14:46:54;0.82;;;0.38;;
35257;SDS011;21385;50.878;8.050;2023-12-22T14:49:20;2.47;;;2.17;;
35257;SDS011;21385;50.878;8.050;2023-12-22T14:51:46;1.48;;;0.82;;
35257;SDS011;21385;50.878;8.050;2023-12-22T14:54:16;3.72;;;0.70;;